createdAt,value
2017-08-26T00:01:52.986Z,56.70
2017-08-26T00:04:21.293Z,56.70
2017-08-26T00:06:49.536Z,56.90
2017-08-26T00:09:17.818Z,56.80
2017-08-26T00:11:46.121Z,56.80
2017-08-26T00:14:14.393Z,56.70
2017-08-26T00:16:42.675Z,56.70
2017-08-26T00:19:10.944Z,56.80
2017-08-26T00:21:39.230Z,56.70
2017-08-26T00:24:07.511Z,56.70
2017-08-26T00:26:35.773Z,56.80
2017-08-26T00:29:04.833Z,56.80
2017-08-26T00:31:33.139Z,56.70
2017-08-26T00:34:01.448Z,56.80
2017-08-26T00:36:29.696Z,56.70
2017-08-26T00:38:57.986Z,56.70
2017-08-26T00:41:26.257Z,56.80
2017-08-26T00:43:54.511Z,56.70
2017-08-26T00:46:22.773Z,56.70
2017-08-26T00:48:51.070Z,56.80
2017-08-26T00:51:19.317Z,56.80
2017-08-26T00:53:47.568Z,56.80
2017-08-26T00:56:15.944Z,56.90
2017-08-26T00:58:44.197Z,56.80
2017-08-26T01:01:12.441Z,56.80
2017-08-26T01:03:40.745Z,56.80
2017-08-26T01:06:08.994Z,56.80
2017-08-26T01:08:37.276Z,56.80
2017-08-26T01:11:05.561Z,56.80
2017-08-26T01:13:33.851Z,56.80
2017-08-26T01:16:02.099Z,56.80
2017-08-26T01:18:30.485Z,56.80
2017-08-26T01:20:58.738Z,56.80
2017-08-26T01:23:26.980Z,56.80
2017-08-26T01:25:55.468Z,56.80
2017-08-26T01:28:23.722Z,56.80
2017-08-26T01:30:52.001Z,56.80
2017-08-26T01:33:20.301Z,56.80
2017-08-26T01:35:48.586Z,56.80
2017-08-26T01:38:16.838Z,56.70
2017-08-26T01:40:45.107Z,56.70
2017-08-26T01:43:14.125Z,56.80
2017-08-26T01:45:42.406Z,56.80
2017-08-26T01:48:11.017Z,56.70
2017-08-26T01:50:39.310Z,56.80
2017-08-26T01:53:07.561Z,56.80
2017-08-26T01:55:35.830Z,56.80
2017-08-26T01:58:04.371Z,56.80
2017-08-26T02:00:32.625Z,56.80
2017-08-26T02:03:01.139Z,56.80
2017-08-26T02:05:29.434Z,56.80
2017-08-26T02:07:57.471Z,56.80
2017-08-26T02:10:25.778Z,56.80
2017-08-26T02:12:54.282Z,56.80
2017-08-26T02:15:22.530Z,56.80
2017-08-26T02:17:50.801Z,56.80
2017-08-26T02:20:19.095Z,56.80
2017-08-26T02:22:47.392Z,56.80
2017-08-26T02:25:15.940Z,56.80
2017-08-26T02:27:44.993Z,56.80
2017-08-26T02:30:13.282Z,56.80
2017-08-26T02:32:42.362Z,56.80
2017-08-26T02:35:10.649Z,57.40
2017-08-26T02:37:38.892Z,56.80
2017-08-26T02:40:07.162Z,56.80
2017-08-26T02:42:35.410Z,56.80
2017-08-26T02:45:03.695Z,56.80
2017-08-26T02:47:32.164Z,56.80
2017-08-26T02:50:00.417Z,56.70
2017-08-26T02:52:28.700Z,56.70
2017-08-26T02:54:57.026Z,56.80
2017-08-26T02:57:25.322Z,56.70
2017-08-26T02:59:53.617Z,56.80
2017-08-26T03:02:22.196Z,56.70
2017-08-26T03:04:50.483Z,56.70
2017-08-26T03:07:18.730Z,56.80
2017-08-26T03:09:47.185Z,56.70
2017-08-26T03:12:15.458Z,57.40
2017-08-26T03:14:44.478Z,56.80
2017-08-26T03:17:12.778Z,56.80
2017-08-26T03:19:41.024Z,56.70
2017-08-26T03:22:09.314Z,56.80
2017-08-26T03:24:37.626Z,57.40
2017-08-26T03:27:05.876Z,56.70
2017-08-26T03:29:34.154Z,56.70
2017-08-26T03:32:02.636Z,56.80
2017-08-26T03:34:30.885Z,56.70
2017-08-26T03:36:59.133Z,56.30
2017-08-26T03:39:27.766Z,56.80
2017-08-26T03:41:56.066Z,56.80
2017-08-26T03:44:24.352Z,56.80
2017-08-26T03:46:52.620Z,56.80
2017-08-26T03:49:20.870Z,56.80
2017-08-26T03:51:49.108Z,56.80
2017-08-26T03:54:18.187Z,56.80
2017-08-26T03:56:46.471Z,56.80
2017-08-26T03:59:14.758Z,56.80
2017-08-26T04:01:42.845Z,56.80
2017-08-26T04:04:11.135Z,56.80
2017-08-26T04:06:39.384Z,57.50
2017-08-26T04:09:07.511Z,56.80
2017-08-26T04:11:35.762Z,56.80
2017-08-26T04:14:04.274Z,56.80
2017-08-26T04:16:33.678Z,56.80
2017-08-26T04:19:01.970Z,56.80
2017-08-26T04:21:30.216Z,56.70
2017-08-26T04:23:58.481Z,56.70
2017-08-26T04:26:26.730Z,56.80
2017-08-26T04:28:54.984Z,56.70
2017-08-26T04:31:23.085Z,56.80
2017-08-26T04:33:51.370Z,56.80
2017-08-26T04:36:19.654Z,56.60
2017-08-26T04:38:48.089Z,56.70
2017-08-26T04:41:17.100Z,56.80
2017-08-26T04:43:45.387Z,56.80
2017-08-26T04:46:13.690Z,56.70
2017-08-26T04:48:41.972Z,56.80
2017-08-26T04:51:10.264Z,56.80
2017-08-26T04:53:38.673Z,56.70
2017-08-26T04:56:07.727Z,56.80
2017-08-26T04:58:35.982Z,56.70
2017-08-26T05:01:04.298Z,56.70
2017-08-26T05:03:32.544Z,56.70
2017-08-26T05:06:00.842Z,57.30
2017-08-26T05:08:29.122Z,56.70
2017-08-26T05:10:57.374Z,56.70
2017-08-26T05:13:25.625Z,56.70
2017-08-26T05:15:53.937Z,56.70
2017-08-26T05:18:22.224Z,56.70
2017-08-26T05:20:50.511Z,56.70
2017-08-26T05:23:19.045Z,56.70
2017-08-26T05:25:47.330Z,56.70
2017-08-26T05:28:15.614Z,56.70
2017-08-26T05:30:44.238Z,57.30
2017-08-26T05:33:12.306Z,56.70
2017-08-26T05:35:40.595Z,56.70
2017-08-26T05:38:08.864Z,56.70
2017-08-26T05:40:37.104Z,56.70
2017-08-26T05:43:05.364Z,56.70
2017-08-26T05:45:34.242Z,56.70
2017-08-26T05:48:02.492Z,56.70
2017-08-26T05:50:30.582Z,56.70
2017-08-26T05:52:58.843Z,56.60
2017-08-26T05:55:27.122Z,56.70
2017-08-26T05:57:55.402Z,56.60
2017-08-26T06:00:24.282Z,56.70
2017-08-26T06:02:52.579Z,56.60
2017-08-26T06:05:20.841Z,56.70
2017-08-26T06:07:49.156Z,56.60
2017-08-26T06:10:17.440Z,56.60
2017-08-26T06:12:45.501Z,56.70
2017-08-26T06:15:13.768Z,56.60
2017-08-26T06:17:42.057Z,56.60
2017-08-26T06:20:10.403Z,56.60
2017-08-26T06:22:38.674Z,56.60
2017-08-26T06:25:06.928Z,56.60
2017-08-26T06:27:35.214Z,56.60
2017-08-26T06:30:03.740Z,56.60
2017-08-26T06:32:31.985Z,56.60
2017-08-26T06:35:00.229Z,56.60
2017-08-26T06:37:28.826Z,56.60
2017-08-26T06:39:57.111Z,57.20
2017-08-26T06:42:25.364Z,56.60
2017-08-26T06:44:53.663Z,56.70
2017-08-26T06:47:21.920Z,56.70
2017-08-26T06:49:50.202Z,56.70
2017-08-26T06:52:18.695Z,56.60
2017-08-26T06:54:46.980Z,56.70
2017-08-26T06:57:15.266Z,56.70
2017-08-26T06:59:43.563Z,56.70
2017-08-26T07:02:11.816Z,56.50
2017-08-26T07:04:40.082Z,56.60
2017-08-26T07:07:08.403Z,56.60
2017-08-26T07:09:36.522Z,56.60
2017-08-26T07:12:04.809Z,56.50
2017-08-26T07:14:33.141Z,56.60
2017-08-26T07:17:01.393Z,56.60
2017-08-26T07:19:29.684Z,56.60
2017-08-26T07:21:57.990Z,56.60
2017-08-26T07:24:26.244Z,56.60
2017-08-26T07:26:54.542Z,56.60
2017-08-26T07:29:22.817Z,56.60
2017-08-26T07:31:51.098Z,56.60
2017-08-26T07:34:19.389Z,56.60
2017-08-26T07:36:47.881Z,56.60
2017-08-26T07:39:16.175Z,56.50
2017-08-26T07:41:44.472Z,56.60
2017-08-26T07:44:13.036Z,56.50
2017-08-26T07:46:41.301Z,56.50
2017-08-26T07:49:10.346Z,56.50
2017-08-26T07:51:38.641Z,56.50
2017-08-26T07:54:06.896Z,56.50
2017-08-26T07:56:35.140Z,56.50
2017-08-26T07:59:03.440Z,56.50
2017-08-26T08:01:31.970Z,56.50
2017-08-26T08:04:00.989Z,56.50
2017-08-26T08:06:29.244Z,56.50
2017-08-26T08:08:57.527Z,56.50
2017-08-26T08:11:25.798Z,56.50
2017-08-26T08:13:54.083Z,56.50
2017-08-26T08:16:23.141Z,56.50
2017-08-26T08:18:51.435Z,56.50
2017-08-26T08:21:21.065Z,56.50
2017-08-26T08:23:49.319Z,56.50
2017-08-26T08:26:18.354Z,56.50
2017-08-26T08:28:46.434Z,56.50
2017-08-26T08:31:14.714Z,56.50
2017-08-26T08:33:42.995Z,56.50
2017-08-26T08:36:11.264Z,56.40
2017-08-26T08:38:39.552Z,56.50
2017-08-26T08:41:07.837Z,56.50
2017-08-26T08:43:36.142Z,56.40
2017-08-26T08:46:04.397Z,57.10
2017-08-26T08:48:32.644Z,56.50
2017-08-26T08:51:01.673Z,56.40
2017-08-26T08:53:29.921Z,56.40
2017-08-26T08:55:57.985Z,56.50
2017-08-26T08:58:28.307Z,56.40
2017-08-26T09:00:56.563Z,56.40
2017-08-26T09:03:24.858Z,56.50
2017-08-26T09:05:53.345Z,56.50
2017-08-26T09:08:21.614Z,56.50
2017-08-26T09:10:49.894Z,56.50
2017-08-26T09:13:18.177Z,56.40
2017-08-26T09:15:46.455Z,56.50
2017-08-26T09:18:14.744Z,56.40
2017-08-26T09:20:43.025Z,56.40
2017-08-26T09:23:11.085Z,56.40
2017-08-26T09:25:39.382Z,56.40
2017-08-26T09:28:07.860Z,56.40
2017-08-26T09:30:37.031Z,56.40
2017-08-26T09:33:05.318Z,56.40
2017-08-26T09:35:33.611Z,56.40
2017-08-26T09:38:01.898Z,56.40
2017-08-26T09:40:30.149Z,56.40
2017-08-26T09:42:58.416Z,56.40
2017-08-26T09:45:26.665Z,56.40
2017-08-26T09:47:54.947Z,56.40
2017-08-26T09:50:23.037Z,56.40
2017-08-26T09:52:51.322Z,57.10
2017-08-26T09:55:19.602Z,56.40
2017-08-26T09:57:48.637Z,56.40
2017-08-26T10:00:16.923Z,56.40
2017-08-26T10:02:45.214Z,56.40
2017-08-26T10:05:13.501Z,56.40
2017-08-26T10:07:41.752Z,56.40
2017-08-26T10:10:10.001Z,56.40
2017-08-26T10:12:38.274Z,56.40
2017-08-26T10:15:07.319Z,56.40
2017-08-26T10:17:35.572Z,56.40
2017-08-26T10:20:03.871Z,56.40
2017-08-26T10:22:32.163Z,56.40
2017-08-26T10:25:00.411Z,56.40
2017-08-26T10:27:28.724Z,56.40
2017-08-26T10:29:56.831Z,56.40
2017-08-26T10:32:24.943Z,56.40
2017-08-26T10:34:53.191Z,56.30
2017-08-26T10:37:21.253Z,56.30
2017-08-26T10:39:49.363Z,56.30
2017-08-26T10:42:17.482Z,56.30
2017-08-26T10:44:45.549Z,56.30
2017-08-26T10:47:13.613Z,56.90
2017-08-26T10:49:41.730Z,56.30
2017-08-26T10:52:09.840Z,56.30
2017-08-26T10:54:38.113Z,56.30
2017-08-26T10:57:06.252Z,56.30
2017-08-26T10:59:34.536Z,56.20
2017-08-26T11:02:02.818Z,56.20
2017-08-26T11:04:31.118Z,56.20
2017-08-26T11:06:59.369Z,56.30
2017-08-26T11:09:27.379Z,56.20
2017-08-26T11:11:55.687Z,56.30
2017-08-26T11:14:23.980Z,56.30
2017-08-26T11:16:52.275Z,56.30
2017-08-26T11:19:20.791Z,56.30
2017-08-26T11:21:49.078Z,56.20
2017-08-26T11:24:17.329Z,56.20
2017-08-26T11:26:45.626Z,56.20
2017-08-26T11:29:13.876Z,56.20
2017-08-26T11:31:42.183Z,56.90
2017-08-26T11:34:10.496Z,56.20
2017-08-26T11:36:39.554Z,56.80
2017-08-26T11:39:07.856Z,56.20
2017-08-26T11:41:36.141Z,56.20
2017-08-26T11:44:05.549Z,56.30
2017-08-26T11:46:33.793Z,56.20
2017-08-26T11:49:02.102Z,56.20
2017-08-26T11:51:30.353Z,56.20
2017-08-26T11:53:58.592Z,56.20
2017-08-26T11:56:26.860Z,56.20
2017-08-26T11:58:55.101Z,56.20
2017-08-26T12:01:23.462Z,56.20
2017-08-26T12:03:52.010Z,56.20
2017-08-26T12:06:20.256Z,56.20
2017-08-26T12:08:48.516Z,56.20
2017-08-26T12:11:16.781Z,56.50
2017-08-26T12:13:45.049Z,56.20
2017-08-26T12:16:13.296Z,56.20
2017-08-26T12:18:41.603Z,56.20
2017-08-26T12:21:09.893Z,56.20
2017-08-26T12:23:38.222Z,56.20
2017-08-26T12:26:06.691Z,56.20
2017-08-26T12:28:34.942Z,56.20
2017-08-26T12:31:03.218Z,56.20
2017-08-26T12:33:31.523Z,56.20
2017-08-26T12:35:59.812Z,56.20
2017-08-26T12:38:28.101Z,55.90
2017-08-26T12:40:56.205Z,56.20
2017-08-26T12:43:24.457Z,56.20
2017-08-26T12:45:52.707Z,56.20
2017-08-26T12:48:21.023Z,56.20
2017-08-26T12:50:49.309Z,56.30
2017-08-26T12:53:17.598Z,56.20
2017-08-26T12:55:45.867Z,56.20
2017-08-26T12:58:14.398Z,56.20
2017-08-26T13:00:42.657Z,56.20
2017-08-26T13:03:10.958Z,56.20
2017-08-26T13:05:40.008Z,56.20
2017-08-26T13:08:08.290Z,56.20
2017-08-26T13:10:36.569Z,56.20
2017-08-26T13:13:04.855Z,56.20
2017-08-26T13:15:32.961Z,56.20
2017-08-26T13:18:01.232Z,56.20
2017-08-26T13:20:29.477Z,56.20
2017-08-26T13:22:57.760Z,56.20
2017-08-26T13:25:26.801Z,56.20
2017-08-26T13:27:55.094Z,56.20
2017-08-26T13:30:24.164Z,56.20
2017-08-26T13:32:52.468Z,56.20
2017-08-26T13:35:20.745Z,56.80
2017-08-26T13:37:49.029Z,56.20
2017-08-26T13:40:17.353Z,56.20
2017-08-26T13:42:45.642Z,56.20
2017-08-26T13:45:13.934Z,56.20
2017-08-26T13:47:42.200Z,56.20
2017-08-26T13:50:10.448Z,56.20
2017-08-26T13:52:38.518Z,56.20
2017-08-26T13:55:06.828Z,56.20
2017-08-26T13:57:35.081Z,56.20
2017-08-26T14:00:03.360Z,56.20
2017-08-26T14:02:31.636Z,56.20
2017-08-26T14:05:00.645Z,56.20
2017-08-26T14:07:28.895Z,56.20
2017-08-26T14:09:57.190Z,56.20
2017-08-26T14:12:25.433Z,56.20
2017-08-26T14:14:53.692Z,56.20
2017-08-26T14:17:22.010Z,56.20
2017-08-26T14:19:50.264Z,56.20
2017-08-26T14:22:19.316Z,56.20
2017-08-26T14:24:47.584Z,56.20
2017-08-26T14:27:15.874Z,56.20
2017-08-26T14:29:44.121Z,56.20
2017-08-26T14:32:12.432Z,56.20
2017-08-26T14:34:40.682Z,56.20
2017-08-26T14:37:08.999Z,56.20
2017-08-26T14:39:37.503Z,56.30
2017-08-26T14:42:05.879Z,56.30
2017-08-26T14:44:34.125Z,56.20
2017-08-26T14:47:02.422Z,56.30
2017-08-26T14:49:30.668Z,56.20
2017-08-26T14:51:58.911Z,56.20
2017-08-26T14:54:27.220Z,56.30
2017-08-26T14:56:55.502Z,56.30
2017-08-26T14:59:24.552Z,56.30
2017-08-26T15:01:53.037Z,56.20
2017-08-26T15:04:21.325Z,56.70
2017-08-26T15:06:49.610Z,56.30
2017-08-26T15:09:17.920Z,56.30
2017-08-26T15:11:46.941Z,56.20
2017-08-26T15:14:15.200Z,56.20
2017-08-26T15:16:43.502Z,56.20
2017-08-26T15:19:11.748Z,56.20
2017-08-26T15:21:40.040Z,56.30
2017-08-26T15:24:08.312Z,56.20
2017-08-26T15:26:36.614Z,56.30
2017-08-26T15:29:04.877Z,56.90
2017-08-26T15:31:32.990Z,56.30
2017-08-26T15:34:01.241Z,56.30
2017-08-26T15:36:29.486Z,56.30
2017-08-26T15:38:57.773Z,56.30
2017-08-26T15:41:26.063Z,56.30
2017-08-26T15:43:54.349Z,56.30
2017-08-26T15:46:22.658Z,56.30
2017-08-26T15:48:50.901Z,56.30
2017-08-26T15:51:20.070Z,56.30
2017-08-26T15:53:48.373Z,56.90
2017-08-26T15:56:16.665Z,56.30
2017-08-26T15:58:44.916Z,56.30
2017-08-26T16:01:13.219Z,56.30
2017-08-26T16:03:41.502Z,56.30
2017-08-26T16:06:09.803Z,56.30
2017-08-26T16:08:38.875Z,56.30
2017-08-26T16:11:07.175Z,56.30
2017-08-26T16:13:35.436Z,56.30
2017-08-26T16:16:03.734Z,56.30
2017-08-26T16:18:31.984Z,56.30
2017-08-26T16:21:01.000Z,56.30
2017-08-26T16:23:29.306Z,56.30
2017-08-26T16:25:57.557Z,56.30
2017-08-26T16:28:25.806Z,56.30
2017-08-26T16:30:54.085Z,56.40
2017-08-26T16:33:22.324Z,56.30
2017-08-26T16:35:50.572Z,56.80
2017-08-26T16:38:18.891Z,56.30
2017-08-26T16:40:47.162Z,56.30
2017-08-26T16:43:15.438Z,56.30
2017-08-26T16:45:43.705Z,56.30
2017-08-26T16:48:12.005Z,56.30
2017-08-26T16:50:40.288Z,56.30
2017-08-26T16:53:08.556Z,56.40
2017-08-26T16:55:36.809Z,56.40
2017-08-26T16:58:05.100Z,56.30
2017-08-26T17:00:33.399Z,56.30
2017-08-26T17:03:01.648Z,56.30
2017-08-26T17:05:29.930Z,56.40
2017-08-26T17:07:58.202Z,56.40
2017-08-26T17:10:26.482Z,56.40
2017-08-26T17:12:54.767Z,56.40
2017-08-26T17:15:22.844Z,56.40
2017-08-26T17:17:51.673Z,56.40
2017-08-26T17:20:19.916Z,56.40
2017-08-26T17:22:48.181Z,56.40
2017-08-26T17:25:16.466Z,56.40
2017-08-26T17:27:44.725Z,56.40
2017-08-26T17:30:12.989Z,56.40
2017-08-26T17:32:41.264Z,56.30
2017-08-26T17:35:09.510Z,56.40
2017-08-26T17:37:37.588Z,56.40
2017-08-26T17:40:05.870Z,56.40
2017-08-26T17:42:34.163Z,56.40
2017-08-26T17:45:02.431Z,56.40
2017-08-26T17:47:30.705Z,56.40
2017-08-26T17:49:58.990Z,56.40
2017-08-26T17:52:27.286Z,56.40
2017-08-26T17:54:56.302Z,56.40
2017-08-26T17:57:24.561Z,56.40
2017-08-26T17:59:52.974Z,56.40
2017-08-26T18:02:21.225Z,56.40
2017-08-26T18:04:49.530Z,56.40
2017-08-26T18:07:18.094Z,56.50
2017-08-26T18:09:46.349Z,56.50
2017-08-26T18:12:14.593Z,56.50
2017-08-26T18:14:42.868Z,56.50
2017-08-26T18:17:11.162Z,56.50
2017-08-26T18:19:39.413Z,56.50
2017-08-26T18:22:07.789Z,57.10
2017-08-26T18:24:36.835Z,56.50
2017-08-26T18:27:05.096Z,56.50
2017-08-26T18:29:33.403Z,56.50
2017-08-26T18:32:01.701Z,56.50
2017-08-26T18:34:29.950Z,56.50
2017-08-26T18:36:58.214Z,56.50
2017-08-26T18:39:26.461Z,56.50
2017-08-26T18:41:54.712Z,56.50
2017-08-26T18:44:23.017Z,56.50
2017-08-26T18:46:51.307Z,56.50
2017-08-26T18:49:19.555Z,56.50
2017-08-26T18:54:22.460Z,56.50
2017-08-26T18:56:50.985Z,56.60
2017-08-26T18:59:19.082Z,56.60
2017-08-26T19:01:47.328Z,56.60
2017-08-26T19:04:16.378Z,56.60
2017-08-26T19:06:44.676Z,56.60
2017-08-26T19:09:12.782Z,56.60
2017-08-26T19:11:41.060Z,56.60
2017-08-26T19:14:09.345Z,56.60
2017-08-26T19:16:37.627Z,56.60
2017-08-26T19:19:05.897Z,56.60
2017-08-26T19:21:34.161Z,56.60
2017-08-26T19:24:02.405Z,56.60
2017-08-26T19:26:30.730Z,56.60
2017-08-26T19:28:59.221Z,56.60
2017-08-26T19:31:27.473Z,56.60
2017-08-26T19:33:55.796Z,56.60
2017-08-26T19:36:24.085Z,57.30
2017-08-26T19:38:52.374Z,56.60
2017-08-26T19:41:20.652Z,56.60
2017-08-26T19:43:49.716Z,56.70
2017-08-26T19:46:18.014Z,56.70
2017-08-26T19:48:46.334Z,56.70
2017-08-26T19:51:14.630Z,56.70
2017-08-26T19:53:42.898Z,56.70
2017-08-26T19:56:11.208Z,56.70
2017-08-26T19:58:39.472Z,56.70
2017-08-26T20:01:07.754Z,56.70
2017-08-26T20:03:36.053Z,56.70
2017-08-26T20:06:05.098Z,56.70
2017-08-26T20:08:33.354Z,56.70
2017-08-26T20:11:01.687Z,56.70
2017-08-26T20:13:29.938Z,56.70
2017-08-26T20:15:58.231Z,56.70
2017-08-26T20:18:26.506Z,56.70
2017-08-26T20:20:54.752Z,56.70
2017-08-26T20:23:23.038Z,56.70
2017-08-26T20:25:51.305Z,56.70
2017-08-26T20:28:19.595Z,56.70
2017-08-26T20:30:47.879Z,56.70
2017-08-26T20:33:16.165Z,56.70
2017-08-26T20:35:44.416Z,56.70
2017-08-26T20:38:12.481Z,56.70
2017-08-26T20:40:40.779Z,56.70
2017-08-26T20:43:09.029Z,56.70
2017-08-26T20:45:37.281Z,56.70
2017-08-26T20:48:06.317Z,57.40
2017-08-26T20:50:34.602Z,56.70
2017-08-26T20:53:02.894Z,56.70
2017-08-26T20:55:31.051Z,56.40
2017-08-26T20:57:59.125Z,56.70
2017-08-26T21:00:27.197Z,57.30
2017-08-26T21:02:55.321Z,56.70
2017-08-26T21:05:23.398Z,56.70
2017-08-26T21:07:51.692Z,56.70
2017-08-26T21:10:19.977Z,56.70
2017-08-26T21:12:48.225Z,56.70
2017-08-26T21:15:16.507Z,56.70
2017-08-26T21:17:44.593Z,56.70
2017-08-26T21:20:12.844Z,56.70
2017-08-26T21:22:41.090Z,56.70
2017-08-26T21:25:09.358Z,56.70
2017-08-26T21:27:37.642Z,56.80
2017-08-26T21:30:05.939Z,56.70
2017-08-26T21:32:34.259Z,56.70
2017-08-26T21:35:03.281Z,56.90
2017-08-26T21:37:31.570Z,56.80
2017-08-26T21:39:59.881Z,56.80
2017-08-26T21:42:28.900Z,56.80
2017-08-26T21:44:57.170Z,56.70
2017-08-26T21:47:25.480Z,56.80
2017-08-26T21:49:53.740Z,56.90
2017-08-26T21:52:22.786Z,56.80
2017-08-26T21:54:51.086Z,56.80
2017-08-26T21:57:19.333Z,57.40
2017-08-26T21:59:47.628Z,56.80
2017-08-26T22:02:16.057Z,56.90
2017-08-26T22:04:44.306Z,56.80
2017-08-26T22:07:12.555Z,56.80
2017-08-26T22:09:40.823Z,56.60
2017-08-26T22:12:09.158Z,56.80
2017-08-26T22:14:37.222Z,56.90
2017-08-26T22:17:05.497Z,56.90
2017-08-26T22:19:33.745Z,56.80
2017-08-26T22:22:02.027Z,56.80
2017-08-26T22:24:30.335Z,56.90
2017-08-26T22:26:58.583Z,56.90
2017-08-26T22:29:26.862Z,56.90
2017-08-26T22:31:55.149Z,56.90
2017-08-26T22:34:23.450Z,56.80
2017-08-26T22:36:52.465Z,56.90
2017-08-26T22:39:20.725Z,56.80
2017-08-26T22:41:49.003Z,56.80
2017-08-26T22:44:17.304Z,56.80
2017-08-26T22:46:45.772Z,56.90
2017-08-26T22:49:14.049Z,56.90
2017-08-26T22:51:42.301Z,56.90
2017-08-26T22:54:10.578Z,56.90
2017-08-26T22:56:38.850Z,56.90
2017-08-26T22:59:07.134Z,56.90
2017-08-26T23:01:35.397Z,56.90
2017-08-26T23:04:03.682Z,56.80
2017-08-26T23:06:31.967Z,56.80
2017-08-26T23:09:00.274Z,56.90
2017-08-26T23:11:28.450Z,56.90
2017-08-26T23:13:56.554Z,56.90
2017-08-26T23:16:24.825Z,56.90
2017-08-26T23:18:53.070Z,56.90
2017-08-26T23:21:21.317Z,56.90
2017-08-26T23:23:49.620Z,57.00
2017-08-26T23:26:17.878Z,56.90
2017-08-26T23:28:46.132Z,56.90
2017-08-26T23:31:14.589Z,56.90
2017-08-26T23:33:42.841Z,56.90
2017-08-26T23:36:11.084Z,56.90
2017-08-26T23:38:39.190Z,57.00
2017-08-26T23:41:07.453Z,57.00
2017-08-26T23:43:36.493Z,57.00
2017-08-26T23:46:04.794Z,56.90
2017-08-26T23:48:32.888Z,56.90
2017-08-26T23:51:00.982Z,56.90
2017-08-26T23:53:29.423Z,57.00
2017-08-26T23:55:57.677Z,57.00
2017-08-26T23:58:25.953Z,57.00
